createdAt,value
2023-03-22T00:00:32.395Z,1009.82
2023-03-22T00:01:32.379Z,1009.81
2023-03-22T00:02:32.424Z,1009.78
2023-03-22T00:03:32.392Z,1009.79
2023-03-22T00:04:32.382Z,1009.81
2023-03-22T00:05:32.321Z,1009.77
2023-03-22T00:06:32.322Z,1009.80
2023-03-22T00:07:32.352Z,1009.77
2023-03-22T00:08:32.285Z,1009.77
2023-03-22T00:09:32.277Z,1009.80
2023-03-22T00:10:32.265Z,1009.76
2023-03-22T00:11:32.302Z,1009.76
2023-03-22T00:12:32.222Z,1009.73
2023-03-22T00:13:33.867Z,1009.76
2023-03-22T00:14:32.200Z,1009.73
2023-03-22T00:15:32.187Z,1009.71
2023-03-22T00:16:32.258Z,1009.75
2023-03-22T00:17:32.148Z,1009.74
2023-03-22T00:18:32.130Z,1009.76
2023-03-22T00:19:32.128Z,1009.76
2023-03-22T00:20:32.118Z,1009.71
2023-03-22T00:21:32.113Z,1009.69
2023-03-22T00:22:32.083Z,1009.67
2023-03-22T00:23:32.078Z,1009.64
2023-03-22T00:24:32.070Z,1009.61
2023-03-22T00:25:32.022Z,1009.65
2023-03-22T00:26:32.021Z,1009.61
2023-03-22T00:27:32.000Z,1009.63
2023-03-22T00:28:32.020Z,1009.58
2023-03-22T00:29:31.967Z,1009.56
2023-03-22T00:30:31.967Z,1009.56
2023-03-22T00:31:32.067Z,1009.59
2023-03-22T00:32:31.935Z,1009.56
2023-03-22T00:33:31.945Z,1009.55
2023-03-22T00:34:31.935Z,1009.55
2023-03-22T00:35:31.980Z,1009.56
2023-03-22T00:36:31.898Z,1009.56
2023-03-22T00:37:31.880Z,1009.52
2023-03-22T00:38:41.656Z,1009.52
2023-03-22T00:39:32.898Z,1009.49
2023-03-22T00:40:31.861Z,1009.49
2023-03-22T00:41:31.811Z,1009.46
2023-03-22T00:42:31.791Z,1009.47
2023-03-22T00:43:31.783Z,1009.46
2023-03-22T00:44:31.797Z,1009.43
2023-03-22T00:45:31.750Z,1009.42
2023-03-22T00:46:31.784Z,1009.38
2023-03-22T00:47:31.711Z,1009.41
2023-03-22T00:48:31.717Z,1009.38
2023-03-22T00:49:31.701Z,1009.36
2023-03-22T00:50:31.661Z,1009.33
2023-03-22T00:51:31.669Z,1009.33
2023-03-22T00:52:31.664Z,1009.31
2023-03-22T00:53:31.638Z,1009.31
2023-03-22T00:54:31.602Z,1009.28
2023-03-22T00:55:31.623Z,1009.28
2023-03-22T00:56:31.627Z,1009.30
2023-03-22T00:57:31.593Z,1009.28
2023-03-22T00:58:31.578Z,1009.27
2023-03-22T00:59:31.542Z,1009.31
2023-03-22T01:00:31.532Z,1009.29
2023-03-22T01:01:31.622Z,1009.27
2023-03-22T01:02:31.504Z,1009.27
2023-03-22T01:03:31.533Z,1009.27
2023-03-22T01:04:31.463Z,1009.25
2023-03-22T01:05:31.456Z,1009.25
2023-03-22T01:06:31.475Z,1009.22
2023-03-22T01:07:31.473Z,1009.21
2023-03-22T01:08:31.413Z,1009.19
2023-03-22T01:09:31.430Z,1009.17
2023-03-22T01:10:31.372Z,1009.17
2023-03-22T01:11:31.366Z,1009.14
2023-03-22T01:12:31.373Z,1009.13
2023-03-22T01:13:31.355Z,1009.13
2023-03-22T01:14:31.359Z,1009.11
2023-03-22T01:15:31.303Z,1009.09
2023-03-22T01:16:31.386Z,1009.09
2023-03-22T01:17:31.284Z,1009.12
2023-03-22T01:18:31.287Z,1009.12
2023-03-22T01:19:31.241Z,1009.07
2023-03-22T01:20:31.233Z,1009.09
2023-03-22T01:21:31.240Z,1009.04
2023-03-22T01:22:31.205Z,1009.07
2023-03-22T01:23:31.192Z,1009.07
2023-03-22T01:24:31.216Z,1009.05
2023-03-22T01:25:31.162Z,1009.03
2023-03-22T01:26:31.189Z,1009.02
2023-03-22T01:27:31.135Z,1009.00
2023-03-22T01:28:33.890Z,1008.99
2023-03-22T01:29:31.133Z,1008.96
2023-03-22T01:30:31.094Z,1008.96
2023-03-22T01:31:31.110Z,1008.92
2023-03-22T01:32:31.077Z,1008.93
2023-03-22T01:33:31.088Z,1008.90
2023-03-22T01:34:31.024Z,1008.87
2023-03-22T01:35:31.060Z,1008.85
2023-03-22T01:36:31.017Z,1008.81
2023-03-22T01:37:31.017Z,1008.85
2023-03-22T01:38:30.995Z,1008.81
2023-03-22T01:39:30.986Z,1008.79
2023-03-22T01:40:30.958Z,1008.75
2023-03-22T01:41:30.971Z,1008.79
2023-03-22T01:42:30.909Z,1008.74
2023-03-22T01:43:30.928Z,1008.73
2023-03-22T01:44:30.905Z,1008.72
2023-03-22T01:45:30.876Z,1008.70
2023-03-22T01:46:30.950Z,1008.65
2023-03-22T01:47:30.864Z,1008.65
2023-03-22T01:48:30.878Z,1008.62
2023-03-22T01:49:30.877Z,1008.60
2023-03-22T01:50:30.826Z,1008.63
2023-03-22T01:51:30.780Z,1008.63
2023-03-22T01:52:30.804Z,1008.59
2023-03-22T01:53:30.784Z,1008.55
2023-03-22T01:54:30.748Z,1008.54
2023-03-22T01:55:30.739Z,1008.51
2023-03-22T01:56:30.777Z,1008.54
2023-03-22T01:57:30.728Z,1008.51
2023-03-22T01:58:30.784Z,1008.52
2023-03-22T01:59:30.708Z,1008.53
2023-03-22T02:00:30.649Z,1008.46
2023-03-22T02:01:30.751Z,1008.47
2023-03-22T02:02:30.718Z,1008.46
2023-03-22T02:03:30.622Z,1008.43
2023-03-22T02:04:30.590Z,1008.42
2023-03-22T02:05:30.603Z,1008.37
2023-03-22T02:06:30.613Z,1008.38
2023-03-22T02:07:30.574Z,1008.36
2023-03-22T02:08:30.554Z,1008.38
2023-03-22T02:09:30.538Z,1008.41
2023-03-22T02:10:30.509Z,1008.47
2023-03-22T02:11:30.507Z,1008.43
2023-03-22T02:12:30.507Z,1008.42
2023-03-22T02:13:30.484Z,1008.39
2023-03-22T02:14:30.454Z,1008.39
2023-03-22T02:15:30.504Z,1008.41
2023-03-22T02:16:30.446Z,1008.40
2023-03-22T02:17:30.416Z,1008.32
2023-03-22T02:18:30.455Z,1008.28
2023-03-22T02:19:30.385Z,1008.27
2023-03-22T02:20:30.387Z,1008.28
2023-03-22T02:21:30.366Z,1008.24
2023-03-22T02:22:30.337Z,1008.22
2023-03-22T02:23:30.336Z,1008.19
2023-03-22T02:24:30.346Z,1008.17
2023-03-22T02:25:30.306Z,1008.19
2023-03-22T02:26:30.277Z,1008.16
2023-03-22T02:27:30.270Z,1008.17
2023-03-22T02:28:30.246Z,1008.18
2023-03-22T02:29:30.231Z,1008.15
2023-03-22T02:30:30.238Z,1008.07
2023-03-22T02:31:30.273Z,1008.09
2023-03-22T02:32:30.217Z,1008.08
2023-03-22T02:33:30.197Z,1008.10
2023-03-22T02:34:30.163Z,1008.06
2023-03-22T02:35:30.297Z,1007.99
2023-03-22T02:36:30.141Z,1008.04
2023-03-22T02:37:30.130Z,1008.04
2023-03-22T02:38:30.117Z,1008.05
2023-03-22T02:39:30.101Z,1008.06
2023-03-22T02:40:30.069Z,1008.07
2023-03-22T02:41:30.093Z,1008.00
2023-03-22T02:42:30.069Z,1008.00
2023-03-22T02:43:30.089Z,1007.95
2023-03-22T02:44:30.037Z,1007.98
2023-03-22T02:45:30.026Z,1007.99
2023-03-22T02:46:30.082Z,1008.01
2023-03-22T02:47:30.113Z,1008.02
2023-03-22T02:48:29.987Z,1008.03
2023-03-22T02:49:30.016Z,1008.02
2023-03-22T02:50:29.959Z,1008.00
2023-03-22T02:51:29.942Z,1007.98
2023-03-22T02:52:29.923Z,1007.95
2023-03-22T02:53:29.895Z,1007.90
2023-03-22T02:54:29.897Z,1007.91
2023-03-22T02:55:29.864Z,1007.91
2023-03-22T02:56:29.918Z,1007.91
2023-03-22T02:57:29.854Z,1007.92
2023-03-22T02:58:29.856Z,1007.91
2023-03-22T02:59:29.824Z,1007.90
2023-03-22T03:00:29.822Z,1007.92
2023-03-22T03:01:29.813Z,1007.87
2023-03-22T03:02:29.813Z,1007.87
2023-03-22T03:03:29.761Z,1007.90
2023-03-22T03:04:29.764Z,1007.86
2023-03-22T03:05:29.727Z,1007.81
2023-03-22T03:06:29.755Z,1007.77
2023-03-22T03:07:29.710Z,1007.78
2023-03-22T03:08:29.714Z,1007.80
2023-03-22T03:09:29.668Z,1007.79
2023-03-22T03:10:29.704Z,1007.77
2023-03-22T03:11:30.422Z,1007.80
2023-03-22T03:12:29.636Z,1007.80
2023-03-22T03:13:29.741Z,1007.77
2023-03-22T03:14:29.606Z,1007.79
2023-03-22T03:15:29.651Z,1007.77
2023-03-22T03:16:29.736Z,1007.85
2023-03-22T03:18:22.011Z,1007.92
2023-03-22T03:19:22.006Z,1007.87
2023-03-22T03:20:22.078Z,1007.83
2023-03-22T03:21:21.964Z,1007.87
2023-03-22T03:22:21.982Z,1007.86
2023-03-22T03:23:21.937Z,1007.82
2023-03-22T03:24:21.936Z,1007.88
2023-03-22T03:25:21.920Z,1007.87
2023-03-22T03:26:21.928Z,1007.75
2023-03-22T03:27:21.890Z,1007.76
2023-03-22T03:28:21.855Z,1007.88
2023-03-22T03:29:21.856Z,1007.85
2023-03-22T03:30:21.867Z,1007.84
2023-03-22T03:31:21.845Z,1007.80
2023-03-22T03:32:21.813Z,1007.82
2023-03-22T03:33:21.807Z,1007.78
2023-03-22T03:34:21.801Z,1007.71
2023-03-22T03:35:21.829Z,1007.77
2023-03-22T03:36:21.777Z,1007.75
2023-03-22T03:37:21.753Z,1007.71
2023-03-22T03:38:21.740Z,1007.67
2023-03-22T03:39:21.737Z,1007.66
2023-03-22T03:40:21.695Z,1007.71
2023-03-22T03:41:21.690Z,1007.66
2023-03-22T03:42:21.708Z,1007.67
2023-03-22T03:43:21.670Z,1007.68
2023-03-22T03:44:21.666Z,1007.71
2023-03-22T03:45:21.622Z,1007.67
2023-03-22T03:46:21.615Z,1007.66
2023-03-22T03:47:21.613Z,1007.64
2023-03-22T03:48:21.669Z,1007.66
2023-03-22T03:49:21.619Z,1007.71
2023-03-22T03:50:21.582Z,1007.69
2023-03-22T03:51:21.542Z,1007.71
2023-03-22T03:52:21.548Z,1007.71
2023-03-22T03:53:21.514Z,1007.69
2023-03-22T03:54:21.529Z,1007.70
2023-03-22T03:55:21.512Z,1007.72
2023-03-22T03:56:21.513Z,1007.70
2023-03-22T03:57:21.471Z,1007.67
2023-03-22T03:58:21.454Z,1007.64
2023-03-22T03:59:21.443Z,1007.66
2023-03-22T04:00:21.450Z,1007.64
2023-03-22T04:01:21.428Z,1007.62
2023-03-22T04:02:21.469Z,1007.61
2023-03-22T04:03:21.403Z,1007.56
2023-03-22T04:04:21.444Z,1007.61
2023-03-22T04:05:21.367Z,1007.59
2023-03-22T04:06:21.382Z,1007.57
2023-03-22T04:07:21.337Z,1007.60
2023-03-22T04:08:21.330Z,1007.61
2023-03-22T04:09:21.300Z,1007.61
2023-03-22T04:10:21.276Z,1007.61
2023-03-22T04:11:21.271Z,1007.60
2023-03-22T04:12:21.289Z,1007.60
2023-03-22T04:13:21.285Z,1007.62
2023-03-22T04:14:21.233Z,1007.58
2023-03-22T04:15:21.240Z,1007.61
2023-03-22T04:16:21.278Z,1007.59
2023-03-22T04:17:21.235Z,1007.59
2023-03-22T04:18:21.216Z,1007.58
2023-03-22T04:19:21.182Z,1007.55
2023-03-22T04:20:21.141Z,1007.56
2023-03-22T04:21:21.200Z,1007.56
2023-03-22T04:22:21.168Z,1007.57
2023-03-22T04:23:21.118Z,1007.56
2023-03-22T04:24:21.093Z,1007.58
2023-03-22T04:25:21.078Z,1007.56
2023-03-22T04:26:21.059Z,1007.56
2023-03-22T04:27:21.064Z,1007.55
2023-03-22T04:28:21.067Z,1007.52
2023-03-22T04:29:21.025Z,1007.48
2023-03-22T04:30:21.015Z,1007.44
2023-03-22T04:31:21.078Z,1007.43
2023-03-22T04:32:20.983Z,1007.39
2023-03-22T04:33:20.962Z,1007.41
2023-03-22T04:34:20.994Z,1007.39
2023-03-22T04:35:20.985Z,1007.39
2023-03-22T04:36:20.906Z,1007.42
2023-03-22T04:37:20.941Z,1007.38
2023-03-22T04:38:20.894Z,1007.42
2023-03-22T04:39:20.899Z,1007.43
2023-03-22T04:40:20.917Z,1007.39
2023-03-22T04:41:20.876Z,1007.37
2023-03-22T04:42:20.857Z,1007.42
2023-03-22T04:43:20.833Z,1007.44
2023-03-22T04:44:20.802Z,1007.47
2023-03-22T04:45:20.804Z,1007.46
2023-03-22T04:46:20.825Z,1007.46
2023-03-22T04:47:20.813Z,1007.49
2023-03-22T04:48:20.800Z,1007.45
2023-03-22T04:49:20.777Z,1007.43
2023-03-22T04:50:20.741Z,1007.42
2023-03-22T04:51:20.738Z,1007.45
2023-03-22T04:52:20.708Z,1007.49
2023-03-22T04:53:20.693Z,1007.56
2023-03-22T04:54:20.692Z,1007.56
2023-03-22T04:55:20.676Z,1007.51
2023-03-22T04:56:20.683Z,1007.49
2023-03-22T04:57:20.644Z,1007.55
2023-03-22T04:58:20.722Z,1007.53
2023-03-22T04:59:20.679Z,1007.48
2023-03-22T05:00:20.640Z,1007.47
2023-03-22T05:01:20.698Z,1007.48
2023-03-22T05:02:20.637Z,1007.49
2023-03-22T05:03:20.556Z,1007.46
2023-03-22T05:04:20.543Z,1007.47
2023-03-22T05:05:20.539Z,1007.45
2023-03-22T05:06:20.530Z,1007.45
2023-03-22T05:07:20.530Z,1007.44
2023-03-22T05:08:20.474Z,1007.45
2023-03-22T05:09:22.843Z,1007.45
2023-03-22T05:10:20.464Z,1007.46
2023-03-22T05:11:20.472Z,1007.44
2023-03-22T05:12:20.425Z,1007.42
2023-03-22T05:13:20.430Z,1007.38
2023-03-22T05:14:20.462Z,1007.33
2023-03-22T05:15:20.413Z,1007.36
2023-03-22T05:16:20.392Z,1007.38
2023-03-22T05:17:20.363Z,1007.38
2023-03-22T05:18:20.366Z,1007.33
2023-03-22T05:19:20.339Z,1007.43
2023-03-22T05:20:20.337Z,1007.40
2023-03-22T05:21:20.311Z,1007.38
2023-03-22T05:22:20.318Z,1007.38
2023-03-22T05:23:20.314Z,1007.45
2023-03-22T05:24:20.298Z,1007.43
2023-03-22T05:25:20.266Z,1007.45
2023-03-22T05:26:20.237Z,1007.39
2023-03-22T05:27:20.218Z,1007.43
2023-03-22T05:28:20.221Z,1007.40
2023-03-22T05:29:20.222Z,1007.39
2023-03-22T05:30:20.227Z,1007.36
2023-03-22T05:31:20.200Z,1007.35
2023-03-22T05:32:20.152Z,1007.41
2023-03-22T05:33:20.147Z,1007.37
2023-03-22T05:34:20.134Z,1007.41
2023-03-22T05:35:20.126Z,1007.41
2023-03-22T05:36:20.154Z,1007.39
2023-03-22T05:37:20.133Z,1007.38
2023-03-22T05:38:20.107Z,1007.39
2023-03-22T05:39:20.068Z,1007.39
2023-03-22T05:40:20.053Z,1007.33
2023-03-22T05:41:20.030Z,1007.39
2023-03-22T05:42:20.015Z,1007.36
2023-03-22T05:43:20.034Z,1007.36
2023-03-22T05:44:20.000Z,1007.35
2023-03-22T05:45:19.985Z,1007.38
2023-03-22T05:46:20.085Z,1007.40
2023-03-22T05:47:19.950Z,1007.40
2023-03-22T05:48:19.963Z,1007.38
2023-03-22T05:49:19.945Z,1007.38
2023-03-22T05:50:19.912Z,1007.39
2023-03-22T05:51:19.904Z,1007.38
2023-03-22T05:52:19.898Z,1007.41
2023-03-22T05:53:19.896Z,1007.41
2023-03-22T05:54:19.869Z,1007.41
2023-03-22T05:55:19.847Z,1007.37
2023-03-22T05:56:19.829Z,1007.33
2023-03-22T05:57:19.832Z,1007.34
2023-03-22T05:58:19.798Z,1007.30
2023-03-22T05:59:19.818Z,1007.32
2023-03-22T06:00:19.785Z,1007.35
2023-03-22T06:01:19.792Z,1007.34
2023-03-22T06:02:19.802Z,1007.33
2023-03-22T06:03:19.854Z,1007.38
2023-03-22T06:04:19.726Z,1007.32
2023-03-22T06:05:19.739Z,1007.36
2023-03-22T06:06:19.677Z,1007.34
2023-03-22T06:07:19.708Z,1007.37
2023-03-22T06:08:19.682Z,1007.36
2023-03-22T06:09:19.692Z,1007.36
2023-03-22T06:10:19.639Z,1007.34
2023-03-22T06:11:19.736Z,1007.39
2023-03-22T06:12:19.625Z,1007.34
2023-03-22T06:13:19.632Z,1007.39
2023-03-22T06:14:19.609Z,1007.36
2023-03-22T06:15:19.570Z,1007.36
2023-03-22T06:16:19.617Z,1007.35
2023-03-22T06:17:19.545Z,1007.38
2023-03-22T06:18:19.537Z,1007.40
2023-03-22T06:19:19.521Z,1007.40
2023-03-22T06:20:19.514Z,1007.40
2023-03-22T06:21:19.480Z,1007.39
2023-03-22T06:22:19.455Z,1007.35
2023-03-22T06:23:19.446Z,1007.34
2023-03-22T06:24:19.417Z,1007.30
2023-03-22T06:25:19.446Z,1007.32
2023-03-22T06:26:19.395Z,1007.35
2023-03-22T06:27:19.424Z,1007.42
2023-03-22T06:28:19.414Z,1007.28
2023-03-22T06:29:19.372Z,1007.30
2023-03-22T06:30:19.360Z,1007.25
2023-03-22T06:31:19.429Z,1007.22
2023-03-22T06:32:19.311Z,1007.23
2023-03-22T06:33:19.305Z,1007.25
2023-03-22T06:34:19.294Z,1007.18
2023-03-22T06:35:19.318Z,1007.17
2023-03-22T06:36:19.250Z,1007.16
2023-03-22T06:37:19.228Z,1007.13
2023-03-22T06:38:19.227Z,1007.25
2023-03-22T06:39:19.210Z,1007.16
2023-03-22T06:40:19.190Z,1007.17
2023-03-22T06:41:19.228Z,1007.16
2023-03-22T06:42:19.174Z,1007.17
2023-03-22T06:43:19.124Z,1007.21
2023-03-22T06:44:19.144Z,1007.16
2023-03-22T06:45:19.114Z,1007.18
2023-03-22T06:46:19.155Z,1007.20
2023-03-22T06:47:19.105Z,1007.29
2023-03-22T06:48:19.149Z,1007.23
2023-03-22T06:49:19.045Z,1007.24
2023-03-22T06:50:19.048Z,1007.22
2023-03-22T06:51:19.051Z,1007.24
2023-03-22T06:52:19.007Z,1007.27
2023-03-22T06:53:18.998Z,1007.16
2023-03-22T06:54:19.007Z,1007.12
2023-03-22T06:55:18.953Z,1007.21
2023-03-22T06:56:18.949Z,1007.14
2023-03-22T06:57:18.974Z,1007.03
2023-03-22T06:58:18.929Z,1007.14
2023-03-22T06:59:18.916Z,1007.13
2023-03-22T07:00:18.885Z,1007.05
2023-03-22T07:01:18.892Z,1007.02
2023-03-22T07:02:18.865Z,1007.02
2023-03-22T07:03:18.896Z,1007.01
2023-03-22T07:04:18.903Z,1006.98
2023-03-22T07:05:18.824Z,1006.94
2023-03-22T07:06:18.840Z,1006.99
2023-03-22T07:07:18.824Z,1006.99
2023-03-22T07:08:18.811Z,1007.07
2023-03-22T07:09:18.790Z,1007.08
2023-03-22T07:10:18.745Z,1007.09
2023-03-22T07:11:18.736Z,1007.07
2023-03-22T07:12:18.731Z,1007.07
2023-03-22T07:13:18.732Z,1007.17
2023-03-22T07:14:18.696Z,1007.08
2023-03-22T07:15:18.729Z,1007.08
2023-03-22T07:16:20.005Z,1007.14
2023-03-22T07:17:18.673Z,1007.12
2023-03-22T07:18:18.646Z,1007.14
2023-03-22T07:19:18.648Z,1007.09
2023-03-22T07:20:18.615Z,1007.01
2023-03-22T07:21:18.577Z,1007.04
2023-03-22T07:22:18.591Z,1007.11
2023-03-22T07:23:18.564Z,1007.04
2023-03-22T07:24:18.556Z,1006.99
2023-03-22T07:25:18.747Z,1007.09
2023-03-22T07:26:18.506Z,1007.00
2023-03-22T07:27:18.528Z,1007.10
2023-03-22T07:28:18.494Z,1007.05
2023-03-22T07:29:18.647Z,1006.99
2023-03-22T07:30:18.475Z,1007.00
2023-03-22T07:31:18.479Z,1006.96
2023-03-22T07:32:18.495Z,1006.97
2023-03-22T07:33:18.428Z,1006.97
2023-03-22T07:34:25.128Z,1007.00
2023-03-22T07:35:18.440Z,1006.95
2023-03-22T07:36:18.386Z,1006.99
2023-03-22T07:37:18.399Z,1006.96
2023-03-22T07:38:18.387Z,1007.03
2023-03-22T07:39:18.343Z,1006.99
2023-03-22T07:40:18.343Z,1007.02
2023-03-22T07:41:18.332Z,1006.89
2023-03-22T07:42:18.339Z,1006.89
2023-03-22T07:43:18.317Z,1006.96
2023-03-22T07:44:18.610Z,1006.89
2023-03-22T07:45:18.497Z,1006.92
2023-03-22T07:46:18.293Z,1006.92
2023-03-22T07:47:27.230Z,1006.87
2023-03-22T07:48:20.674Z,1006.99
2023-03-22T07:49:18.214Z,1006.98
2023-03-22T07:50:18.204Z,1006.95
2023-03-22T07:51:18.200Z,1006.95
2023-03-22T07:52:18.204Z,1006.96
2023-03-22T07:53:18.163Z,1007.05
2023-03-22T07:54:32.585Z,1007.06
2023-03-22T07:55:19.121Z,1007.02
2023-03-22T07:56:18.169Z,1007.06
2023-03-22T07:57:18.144Z,1007.04
2023-03-22T07:58:18.112Z,1006.92
2023-03-22T07:59:18.132Z,1007.07
2023-03-22T08:00:18.079Z,1007.05
2023-03-22T08:01:18.055Z,1007.06
2023-03-22T08:02:18.123Z,1006.98
2023-03-22T08:03:18.099Z,1006.97
2023-03-22T08:04:18.034Z,1007.05
2023-03-22T08:05:18.022Z,1007.06
2023-03-22T08:06:18.021Z,1007.04
2023-03-22T08:07:17.989Z,1007.04
2023-03-22T08:08:17.985Z,1007.06
2023-03-22T08:09:17.987Z,1007.11
2023-03-22T08:10:18.007Z,1007.01
2023-03-22T08:11:17.916Z,1007.10
2023-03-22T08:12:17.906Z,1007.07
2023-03-22T08:13:17.888Z,1007.06
2023-03-22T08:14:24.782Z,1007.05
2023-03-22T08:15:20.277Z,1007.12
2023-03-22T08:16:17.990Z,1007.09
2023-03-22T08:17:17.834Z,1007.13
2023-03-22T08:18:17.853Z,1007.10
2023-03-22T08:19:18.064Z,1007.11
2023-03-22T08:20:17.820Z,1007.09
2023-03-22T08:21:17.772Z,1007.12
2023-03-22T08:22:18.041Z,1007.08
2023-03-22T08:23:17.771Z,1007.07
2023-03-22T08:24:18.512Z,1007.19
2023-03-22T08:25:17.754Z,1007.19
2023-03-22T08:26:17.722Z,1007.13
2023-03-22T08:27:17.731Z,1007.18
2023-03-22T08:28:17.733Z,1007.16
2023-03-22T08:29:17.773Z,1007.18
2023-03-22T08:30:17.683Z,1007.19
2023-03-22T08:31:17.724Z,1007.15
2023-03-22T08:32:17.651Z,1007.28
2023-03-22T08:33:17.644Z,1007.20
2023-03-22T08:34:17.654Z,1007.17
2023-03-22T08:35:17.681Z,1007.30
2023-03-22T08:36:17.642Z,1007.00
2023-03-22T08:37:17.615Z,1007.14
2023-03-22T08:38:17.547Z,1007.18
2023-03-22T08:39:17.573Z,1007.14
2023-03-22T08:40:17.536Z,1007.17
2023-03-22T08:41:17.529Z,1007.15
2023-03-22T08:42:17.541Z,1007.27
2023-03-22T08:43:17.474Z,1007.08
2023-03-22T08:44:17.496Z,1007.13
2023-03-22T08:45:17.452Z,1007.20
2023-03-22T08:46:17.607Z,1007.16
2023-03-22T08:47:17.486Z,1007.15
2023-03-22T08:48:17.506Z,1007.18
2023-03-22T08:49:17.424Z,1007.18
2023-03-22T08:50:17.398Z,1007.14
2023-03-22T08:51:19.219Z,1007.14
2023-03-22T08:52:17.426Z,1007.12
2023-03-22T08:53:17.379Z,1007.04
2023-03-22T08:54:17.359Z,1007.06
2023-03-22T08:55:17.346Z,1007.03
2023-03-22T08:56:17.319Z,1007.06
2023-03-22T08:57:17.346Z,1007.04
2023-03-22T08:58:17.306Z,1007.06
2023-03-22T08:59:17.257Z,1007.13
2023-03-22T09:00:17.277Z,1007.16
2023-03-22T09:01:17.431Z,1007.00
2023-03-22T09:02:17.304Z,1006.98
2023-03-22T09:03:17.220Z,1007.04
2023-03-22T09:04:17.259Z,1007.05
2023-03-22T09:05:17.221Z,1007.04
2023-03-22T09:06:17.174Z,1007.02
2023-03-22T09:07:17.168Z,1007.00
2023-03-22T09:08:19.422Z,1007.06
2023-03-22T09:09:17.226Z,1006.92
2023-03-22T09:10:17.164Z,1007.11
2023-03-22T09:11:17.990Z,1007.06
2023-03-22T09:12:17.131Z,1007.09
2023-03-22T09:13:17.116Z,1007.14
2023-03-22T09:14:17.150Z,1007.06
2023-03-22T09:15:17.064Z,1007.11
2023-03-22T09:16:17.207Z,1007.01
2023-03-22T09:17:17.034Z,1007.06
2023-03-22T09:18:17.017Z,1006.98
2023-03-22T09:19:17.020Z,1007.07
2023-03-22T09:20:17.032Z,1007.00
2023-03-22T09:21:17.019Z,1007.02
2023-03-22T09:22:16.970Z,1007.05
2023-03-22T09:23:16.961Z,1007.10
2023-03-22T09:24:16.970Z,1007.16
2023-03-22T09:25:16.945Z,1007.02
2023-03-22T09:26:16.895Z,1007.04
2023-03-22T09:27:16.951Z,1006.98
2023-03-22T09:28:16.940Z,1007.04
2023-03-22T09:29:16.881Z,1006.97
2023-03-22T09:30:16.892Z,1006.95
2023-03-22T09:31:19.779Z,1006.95
2023-03-22T09:32:16.838Z,1006.88
2023-03-22T09:33:16.808Z,1006.88
2023-03-22T09:34:16.821Z,1006.94
2023-03-22T09:35:16.789Z,1006.92
2023-03-22T09:36:16.814Z,1006.90
2023-03-22T09:37:16.766Z,1006.89
2023-03-22T09:38:16.740Z,1006.84
2023-03-22T09:39:16.736Z,1006.88
2023-03-22T09:40:16.732Z,1006.96
2023-03-22T09:41:16.689Z,1006.89
2023-03-22T09:42:16.712Z,1006.93
2023-03-22T09:43:16.683Z,1006.93
2023-03-22T09:44:16.765Z,1006.95
2023-03-22T09:45:16.664Z,1006.98
2023-03-22T09:46:16.692Z,1006.94
2023-03-22T09:47:16.670Z,1006.96
2023-03-22T09:48:16.640Z,1006.88
2023-03-22T09:49:16.624Z,1006.87
2023-03-22T09:50:16.621Z,1006.84
2023-03-22T09:51:16.570Z,1006.88
2023-03-22T09:52:16.638Z,1006.88
2023-03-22T09:53:16.570Z,1006.89
2023-03-22T09:54:16.525Z,1006.88
2023-03-22T09:55:16.603Z,1006.91
2023-03-22T09:56:16.494Z,1006.93
2023-03-22T09:57:16.644Z,1006.90
2023-03-22T09:58:16.532Z,1006.96
2023-03-22T09:59:16.456Z,1006.88
2023-03-22T10:00:16.565Z,1006.82
2023-03-22T10:01:18.499Z,1006.85
2023-03-22T10:02:16.525Z,1006.92
2023-03-22T10:03:16.436Z,1006.90
2023-03-22T10:04:16.561Z,1006.83
2023-03-22T10:05:16.384Z,1006.82
2023-03-22T10:06:16.403Z,1006.81
2023-03-22T10:07:16.369Z,1006.82
2023-03-22T10:08:16.357Z,1006.85
2023-03-22T10:09:16.425Z,1006.75
2023-03-22T10:10:16.331Z,1006.82
2023-03-22T10:11:16.308Z,1006.85
2023-03-22T10:12:16.385Z,1006.85
2023-03-22T10:13:16.270Z,1006.71
2023-03-22T10:14:16.262Z,1006.77
2023-03-22T10:15:16.268Z,1006.79
2023-03-22T10:16:16.315Z,1006.77
2023-03-22T10:17:16.229Z,1006.74
2023-03-22T10:18:16.199Z,1006.75
2023-03-22T10:19:16.225Z,1006.53
2023-03-22T10:20:16.166Z,1006.61
2023-03-22T10:21:16.155Z,1006.54
2023-03-22T10:22:16.152Z,1006.57
2023-03-22T10:23:16.147Z,1006.62
2023-03-22T10:24:16.139Z,1006.68
2023-03-22T10:25:16.162Z,1006.70
2023-03-22T10:26:16.109Z,1006.58
2023-03-22T10:27:16.098Z,1006.57
2023-03-22T10:28:16.081Z,1006.63
2023-03-22T10:29:16.126Z,1006.60
2023-03-22T10:30:16.045Z,1006.63
2023-03-22T10:31:16.077Z,1006.64
2023-03-22T10:32:16.065Z,1006.70
2023-03-22T10:33:16.017Z,1006.75
2023-03-22T10:34:16.002Z,1006.74
2023-03-22T10:35:15.985Z,1006.72
2023-03-22T10:36:15.957Z,1006.78
2023-03-22T10:37:15.951Z,1006.74
2023-03-22T10:38:15.940Z,1006.77
2023-03-22T10:39:15.972Z,1006.82
2023-03-22T10:40:15.920Z,1006.75
2023-03-22T10:41:15.919Z,1006.86
2023-03-22T10:42:15.922Z,1006.89
2023-03-22T10:43:15.897Z,1006.88
2023-03-22T10:44:15.854Z,1006.86
2023-03-22T10:45:15.890Z,1006.85
2023-03-22T10:46:15.889Z,1006.84
2023-03-22T10:47:15.807Z,1006.83
2023-03-22T10:48:18.694Z,1006.81
2023-03-22T10:49:15.788Z,1006.81
2023-03-22T10:50:15.788Z,1006.81
2023-03-22T10:51:15.806Z,1006.74
2023-03-22T10:52:15.767Z,1006.75
2023-03-22T10:53:15.783Z,1006.73
2023-03-22T10:54:15.757Z,1006.74
2023-03-22T10:55:15.750Z,1006.73
2023-03-22T10:56:15.723Z,1006.73
2023-03-22T10:57:15.699Z,1006.68
2023-03-22T10:58:15.719Z,1006.69
2023-03-22T10:59:15.674Z,1006.68
2023-03-22T11:00:15.661Z,1006.69
2023-03-22T11:01:15.726Z,1006.70
2023-03-22T11:02:15.743Z,1006.70
2023-03-22T11:03:15.630Z,1006.70
2023-03-22T11:04:15.625Z,1006.68
2023-03-22T11:05:15.616Z,1006.67
2023-03-22T11:06:15.579Z,1006.65
2023-03-22T11:07:15.559Z,1006.67
2023-03-22T11:08:15.554Z,1006.64
2023-03-22T11:09:15.560Z,1006.61
2023-03-22T11:10:15.590Z,1006.64
2023-03-22T11:11:15.528Z,1006.65
2023-03-22T11:12:15.471Z,1006.63
2023-03-22T11:13:15.479Z,1006.69
2023-03-22T11:14:15.468Z,1006.64
2023-03-22T11:15:15.479Z,1006.65
2023-03-22T11:16:15.495Z,1006.72
2023-03-22T11:17:15.431Z,1006.70
2023-03-22T11:18:15.420Z,1006.64
2023-03-22T11:19:15.408Z,1006.65
2023-03-22T11:20:15.402Z,1006.63
2023-03-22T11:21:15.377Z,1006.68
2023-03-22T11:22:15.361Z,1006.60
2023-03-22T11:23:15.352Z,1006.63
2023-03-22T11:24:15.313Z,1006.70
2023-03-22T11:25:15.317Z,1006.65
2023-03-22T11:26:15.313Z,1006.71
2023-03-22T11:27:15.308Z,1006.77
2023-03-22T11:28:15.287Z,1006.68
2023-03-22T11:29:15.258Z,1006.69
2023-03-22T11:30:15.248Z,1006.62
2023-03-22T11:31:15.356Z,1006.61
2023-03-22T11:32:15.252Z,1006.71
2023-03-22T11:33:15.290Z,1006.66
2023-03-22T11:34:15.218Z,1006.63
2023-03-22T11:35:15.220Z,1006.66
2023-03-22T11:36:15.184Z,1006.59
2023-03-22T11:37:17.215Z,1006.65
2023-03-22T11:38:15.128Z,1006.66
2023-03-22T11:39:15.129Z,1006.55
2023-03-22T11:40:15.132Z,1006.61
2023-03-22T11:41:15.123Z,1006.58
2023-03-22T11:42:15.176Z,1006.66
2023-03-22T11:43:15.111Z,1006.63
2023-03-22T11:44:15.088Z,1006.64
2023-03-22T11:45:15.056Z,1006.65
2023-03-22T11:46:15.088Z,1006.61
2023-03-22T11:47:15.049Z,1006.60
2023-03-22T11:48:15.219Z,1006.65
2023-03-22T11:49:15.064Z,1006.58
2023-03-22T11:50:15.015Z,1006.66
2023-03-22T11:51:14.963Z,1006.53
2023-03-22T11:52:14.973Z,1006.58
2023-03-22T11:53:14.980Z,1006.57
2023-03-22T11:54:14.939Z,1006.51
2023-03-22T11:55:14.963Z,1006.55
2023-03-22T11:56:14.922Z,1006.47
2023-03-22T11:57:14.923Z,1006.49
2023-03-22T11:58:14.891Z,1006.47
2023-03-22T11:59:14.902Z,1006.43
2023-03-22T12:00:14.948Z,1006.51
2023-03-22T12:01:14.894Z,1006.50
2023-03-22T12:02:14.860Z,1006.47
2023-03-22T12:03:14.880Z,1006.52
2023-03-22T12:04:14.797Z,1006.48
2023-03-22T12:05:14.834Z,1006.48
2023-03-22T12:06:14.800Z,1006.52